createdAt,value
2023-03-29T14:01:07.475Z,7.7812
2023-03-29T14:02:08.663Z,6.7240
2023-03-29T14:03:09.833Z,7.3400
2023-03-29T14:04:11.093Z,8.3092
2023-03-29T14:05:12.318Z,7.0253
2023-03-29T14:06:13.546Z,7.8417
2023-03-29T14:07:14.812Z,6.1795
2023-03-29T14:08:19.401Z,5.7171
2023-03-29T14:09:20.931Z,7.8441
2023-03-29T14:10:22.423Z,7.3347
2023-03-29T14:11:24.481Z,6.3174
2023-03-29T14:12:25.653Z,6.7332
2023-03-29T14:13:27.036Z,7.3664
2023-03-29T14:14:28.553Z,6.1392
2023-03-29T14:15:30.049Z,5.8135
2023-03-29T14:16:31.815Z,6.3398
2023-03-29T14:17:33.133Z,6.6528
2023-03-29T14:18:34.802Z,6.0375
2023-03-29T14:19:36.128Z,6.0626
2023-03-29T14:21:58.808Z,6.4634
2023-03-29T14:23:00.047Z,6.8393
2023-03-29T14:24:01.282Z,7.2425
2023-03-29T14:25:02.477Z,5.7857
2023-03-29T14:26:03.972Z,6.6511
2023-03-29T14:27:04.989Z,6.7564
2023-03-29T14:28:06.234Z,7.1968
2023-03-29T14:29:07.445Z,6.6424
2023-03-29T14:30:07.600Z,7.9542
2023-03-29T14:32:04.573Z,6.8875
2023-03-29T14:33:05.787Z,6.7840
2023-03-29T14:34:06.958Z,6.5429
2023-03-29T14:35:10.401Z,6.3096
2023-03-29T14:36:12.064Z,6.1984
2023-03-29T14:37:13.475Z,7.1653
2023-03-29T14:38:14.927Z,7.1878
2023-03-29T14:39:17.847Z,6.1431
2023-03-29T14:40:19.120Z,5.3866
2023-03-29T14:41:21.998Z,6.8066
2023-03-29T14:42:21.575Z,6.6424
2023-03-29T14:43:22.746Z,6.1724
2023-03-29T14:44:24.076Z,6.6796
2023-03-29T14:45:25.566Z,6.9513
2023-03-29T14:46:27.197Z,6.7055
2023-03-29T14:47:28.650Z,6.6988
2023-03-29T14:48:30.137Z,5.9461
2023-03-29T14:49:31.702Z,6.6710
2023-03-29T14:50:33.196Z,6.9427
2023-03-29T14:51:34.694Z,9.2676
2023-03-29T14:52:36.239Z,7.0858
2023-03-29T14:53:37.762Z,9.5933
2023-03-29T14:54:39.242Z,10.6300
2023-03-29T14:55:40.799Z,10.1323
2023-03-29T14:56:42.308Z,9.0506
2023-03-29T14:57:43.852Z,10.7190
2023-03-29T14:58:45.316Z,11.3404
2023-03-29T14:59:46.854Z,10.0146
2023-03-29T15:00:48.399Z,11.1756
2023-03-29T15:01:50.010Z,9.7816
2023-03-29T15:02:51.536Z,8.2314
2023-03-29T15:03:54.712Z,9.1818
2023-03-29T15:04:54.461Z,10.0515
2023-03-29T15:05:56.003Z,8.7759
2023-03-29T15:06:57.510Z,9.0429
2023-03-29T15:07:59.025Z,10.9988
2023-03-29T15:09:06.161Z,10.6545
2023-03-29T15:10:04.418Z,9.8448
2023-03-29T15:11:05.694Z,8.6354
2023-03-29T15:12:06.925Z,10.1993
2023-03-29T15:13:08.181Z,9.8310
2023-03-29T15:14:09.433Z,9.9650
2023-03-29T15:15:10.629Z,8.4296
2023-03-29T15:16:12.075Z,10.6858
2023-03-29T15:17:13.122Z,10.6185
2023-03-29T15:18:14.441Z,10.5317
2023-03-29T15:19:15.725Z,9.6991
2023-03-29T15:20:17.260Z,10.0159
2023-03-29T15:21:18.794Z,9.0089
2023-03-29T15:22:20.275Z,8.9718
2023-03-29T15:23:21.854Z,7.1738
2023-03-29T15:24:23.368Z,6.4189
2023-03-29T15:25:24.877Z,10.0682
2023-03-29T15:26:26.394Z,9.8328
2023-03-29T15:27:27.928Z,10.3984
2023-03-29T15:28:29.487Z,8.7033
2023-03-29T15:29:30.936Z,6.9023
2023-03-29T15:30:33.982Z,6.8231
2023-03-29T15:31:35.245Z,7.4745
2023-03-29T15:32:36.465Z,8.9779
2023-03-29T15:33:37.922Z,7.8597
2023-03-29T15:34:38.930Z,10.9926
2023-03-29T15:35:40.160Z,9.6145
2023-03-29T15:36:41.703Z,10.2226
2023-03-29T15:37:43.136Z,11.1663
2023-03-29T15:38:45.508Z,10.5671
2023-03-29T15:39:46.180Z,10.7340
2023-03-29T15:40:47.763Z,8.1657
2023-03-29T15:41:49.287Z,10.5402
2023-03-29T15:42:50.760Z,8.5440
2023-03-29T15:43:52.268Z,11.2022
2023-03-29T15:44:53.809Z,10.4871
2023-03-29T15:45:55.330Z,9.0085
2023-03-29T15:46:56.875Z,9.1179
2023-03-29T15:47:59.735Z,8.4616
2023-03-29T15:49:01.015Z,9.3682
2023-03-29T15:50:02.198Z,10.4145
2023-03-29T15:51:06.534Z,11.4765
2023-03-29T15:52:04.677Z,11.0811
2023-03-29T15:53:15.149Z,8.2696
2023-03-29T15:54:07.584Z,9.6612
2023-03-29T15:55:08.998Z,9.4431
2023-03-29T15:56:10.562Z,10.5830
2023-03-29T15:57:12.482Z,8.4012
2023-03-29T15:58:13.665Z,8.9228
2023-03-29T15:59:18.129Z,9.2726
2023-03-29T16:00:19.350Z,9.7871
2023-03-29T16:01:20.574Z,8.9945
2023-03-29T16:02:21.854Z,8.9969
2023-03-29T16:03:23.089Z,8.8378
2023-03-29T16:04:24.291Z,9.0833
2023-03-29T16:05:25.546Z,8.2612
2023-03-29T16:06:26.786Z,9.3965
2023-03-29T16:07:27.980Z,7.9818
2023-03-29T16:08:29.232Z,9.8261
2023-03-29T16:09:30.554Z,9.6343
2023-03-29T16:10:31.798Z,9.5607
2023-03-29T16:11:33.332Z,9.4052
2023-03-29T16:12:34.830Z,8.5920
2023-03-29T16:13:36.509Z,9.4798
2023-03-29T16:14:37.928Z,9.5574
2023-03-29T16:15:39.421Z,9.3657
2023-03-29T16:16:40.969Z,9.5950
2023-03-29T16:17:42.511Z,9.6207
2023-03-29T16:18:43.943Z,8.7891
2023-03-29T16:19:45.542Z,9.6107
2023-03-29T16:20:46.991Z,10.2348
2023-03-29T16:21:48.558Z,9.5567
2023-03-29T16:22:50.031Z,10.8337
2023-03-29T16:23:51.580Z,9.0237
2023-03-29T16:24:53.141Z,12.1797
2023-03-29T16:25:54.633Z,8.9125
2023-03-29T16:26:56.486Z,10.8932
2023-03-29T16:27:57.671Z,11.3887
2023-03-29T16:28:59.165Z,9.0348
2023-03-29T16:30:00.736Z,9.7914
2023-03-29T16:31:02.212Z,13.1641
2023-03-29T16:32:06.265Z,14.8394
2023-03-29T17:45:53.497Z,47.4250
2023-03-29T17:46:54.801Z,53.3026
2023-03-29T17:47:56.045Z,54.1269
2023-03-29T17:48:57.204Z,52.1398
2023-03-29T17:52:32.756Z,47.6788
2023-03-29T17:53:34.018Z,49.9419
2023-03-29T17:54:35.231Z,44.3744
2023-03-29T17:55:36.481Z,45.1814
2023-03-29T17:56:37.710Z,44.1453
2023-03-29T17:57:39.424Z,44.1904
2023-03-29T17:58:40.168Z,41.9337
2023-03-29T17:59:41.473Z,45.3978
2023-03-29T18:00:46.195Z,36.3705
2023-03-29T18:01:48.646Z,39.7136
2023-03-29T18:02:44.656Z,42.1637
2023-03-29T18:03:46.132Z,38.0839
2023-03-29T18:04:47.612Z,43.9425
2023-03-29T18:05:49.126Z,41.9171
2023-03-29T18:06:50.654Z,43.1854
2023-03-29T18:07:52.199Z,38.2152
2023-03-29T18:08:53.714Z,38.9622
2023-03-29T18:09:55.236Z,41.3114
2023-03-29T18:10:56.752Z,35.6124
2023-03-29T18:11:58.283Z,37.9587
2023-03-29T18:12:59.953Z,38.4475
2023-03-29T18:14:01.327Z,40.4410
2023-03-29T18:15:02.858Z,39.7014
2023-03-29T18:16:04.560Z,38.5115
2023-03-29T18:17:05.900Z,38.1871
2023-03-29T18:18:08.740Z,41.2113
2023-03-29T18:19:08.917Z,42.2278
2023-03-29T18:20:10.453Z,40.8953
2023-03-29T18:21:11.948Z,39.3496
2023-03-29T18:22:13.463Z,34.2843
2023-03-29T18:23:14.998Z,37.2404
2023-03-29T18:24:16.518Z,37.9208
2023-03-29T18:25:18.033Z,37.0083
2023-03-29T18:26:19.562Z,35.8961
2023-03-29T18:27:21.115Z,36.2414
2023-03-29T18:28:22.653Z,36.9484
2023-03-29T18:29:24.142Z,35.4077
2023-03-29T18:30:25.647Z,34.1330
2023-03-29T18:31:27.278Z,37.0078
2023-03-29T18:32:28.716Z,32.1065
2023-03-29T18:33:30.234Z,31.6462
2023-03-29T18:34:31.733Z,32.6898
2023-03-29T18:35:33.325Z,32.8397
2023-03-29T18:36:34.780Z,31.5734
2023-03-29T18:37:36.328Z,31.2818
2023-03-29T18:38:41.443Z,31.5440
2023-03-29T18:39:48.951Z,27.5529
2023-03-29T18:40:44.203Z,30.2794
2023-03-29T18:43:17.959Z,31.0735
2023-03-29T18:44:18.607Z,31.7674
2023-03-29T18:45:20.171Z,29.2068
2023-03-29T18:46:22.603Z,28.3432
2023-03-29T18:47:23.407Z,29.9296
2023-03-29T18:48:24.686Z,28.8366
2023-03-29T18:49:26.202Z,27.2096
2023-03-29T18:50:29.449Z,28.5295
2023-03-29T18:51:29.222Z,29.5031
2023-03-29T18:52:32.364Z,29.7814
2023-03-29T18:53:37.034Z,27.4953
2023-03-29T18:54:38.549Z,29.7786
2023-03-29T18:55:40.126Z,27.8284
2023-03-29T18:56:42.028Z,27.7372
2023-03-29T18:57:43.099Z,27.3054
2023-03-29T18:58:44.628Z,26.9193
2023-03-29T18:59:46.134Z,27.4078
2023-03-29T19:00:47.632Z,27.3272
2023-03-29T19:01:53.266Z,24.9387
2023-03-29T19:02:53.867Z,28.5116
2023-03-29T19:03:55.774Z,25.9088
2023-03-29T19:04:56.281Z,25.6051
2023-03-29T19:05:57.503Z,26.5302
2023-03-29T19:06:58.741Z,33.3641
2023-03-29T19:07:59.988Z,32.3374
2023-03-29T19:09:01.242Z,29.3130
2023-03-29T19:10:02.486Z,27.1055
2023-03-29T19:11:03.756Z,24.9804
2023-03-29T19:12:04.969Z,25.2704
2023-03-29T19:13:06.241Z,27.5454
2023-03-29T19:14:07.515Z,28.4343
2023-03-29T19:15:08.940Z,24.9338
2023-03-29T19:16:10.536Z,22.9980
2023-03-29T19:17:11.984Z,26.7460
2023-03-29T19:18:13.630Z,26.2461
2023-03-29T19:19:14.999Z,24.3698
2023-03-29T19:20:16.555Z,21.5639
2023-03-29T19:21:18.045Z,21.6217
2023-03-29T19:22:19.590Z,23.6855
2023-03-29T19:23:21.092Z,21.5287
2023-03-29T19:24:22.642Z,23.5029
2023-03-29T19:25:24.130Z,24.6795
2023-03-29T19:26:25.653Z,23.7482
2023-03-29T19:27:27.196Z,23.9481
2023-03-29T19:28:28.716Z,23.7825
2023-03-29T19:29:30.271Z,21.8243
2023-03-29T19:30:31.735Z,22.8109
2023-03-29T19:31:33.324Z,21.4466
2023-03-29T19:32:34.803Z,23.3669
2023-03-29T19:33:36.318Z,23.8845
2023-03-29T19:34:37.828Z,21.7603
2023-03-29T19:35:39.349Z,20.5778
2023-03-29T19:36:40.858Z,21.9675
2023-03-29T19:37:42.376Z,20.7506
2023-03-29T19:38:44.010Z,20.5539
2023-03-29T19:39:45.448Z,21.1075
2023-03-29T19:40:46.958Z,19.7609
2023-03-29T19:41:48.454Z,19.3210
2023-03-29T19:42:50.036Z,22.9349
2023-03-29T19:43:51.563Z,22.9099
2023-03-29T19:44:53.062Z,20.4631
2023-03-29T19:45:54.748Z,18.6833
2023-03-29T19:46:56.150Z,19.6784
2023-03-29T19:47:57.648Z,22.2792
2023-03-29T19:48:59.127Z,20.6122
2023-03-29T19:50:00.664Z,20.8890
2023-03-29T19:51:02.177Z,22.5730
2023-03-29T19:52:03.729Z,19.9764
2023-03-29T19:53:05.218Z,20.7931
2023-03-29T19:54:06.795Z,20.6024
2023-03-29T19:55:08.318Z,21.7554
2023-03-29T19:56:09.809Z,21.3531
2023-03-29T19:57:11.326Z,20.6434
2023-03-29T19:58:12.906Z,18.1684
2023-03-29T19:59:14.360Z,20.8714
2023-03-29T20:00:15.907Z,22.3785
2023-03-29T20:01:17.406Z,20.8800
2023-03-29T20:02:18.937Z,18.7043
2023-03-29T20:03:20.471Z,21.5914
2023-03-29T20:04:22.033Z,21.1805
2023-03-29T20:05:23.509Z,20.8393
2023-03-29T20:06:25.039Z,19.0390
2023-03-29T20:07:26.545Z,18.8324
2023-03-29T20:08:28.075Z,18.7628
2023-03-29T20:09:29.632Z,19.4283
2023-03-29T20:10:31.136Z,17.4200
2023-03-29T20:11:32.637Z,21.0938
2023-03-29T20:12:34.191Z,19.5097
2023-03-29T20:13:38.718Z,19.1768
2023-03-29T20:14:37.217Z,17.4324
2023-03-29T20:15:38.736Z,17.6049
2023-03-29T20:16:40.316Z,19.8406
2023-03-29T20:17:41.801Z,17.5242
2023-03-29T20:18:43.303Z,15.8191
2023-03-29T20:19:44.860Z,16.0880
2023-03-29T20:20:46.362Z,18.9424
2023-03-29T20:21:47.970Z,17.8456
2023-03-29T20:22:53.696Z,17.5687
2023-03-29T20:23:51.104Z,17.9378
2023-03-29T20:24:52.456Z,16.0308
2023-03-29T20:25:54.012Z,17.2511
2023-03-29T20:26:55.495Z,17.1193
2023-03-29T20:27:57.007Z,16.9033
2023-03-29T20:28:58.529Z,15.4000
2023-03-29T20:30:00.061Z,17.8741
2023-03-29T20:31:01.936Z,15.3339
2023-03-29T20:32:03.151Z,17.3747
2023-03-29T20:33:04.712Z,19.3922
2023-03-29T20:34:06.154Z,19.1114
2023-03-29T20:35:07.691Z,17.4187
2023-03-29T20:36:09.349Z,17.6862
2023-03-29T20:37:10.898Z,17.5114
2023-03-29T20:38:12.269Z,16.1110
2023-03-29T20:39:13.908Z,16.8246
2023-03-29T20:40:15.304Z,15.9029
2023-03-29T20:41:16.822Z,17.6013
2023-03-29T20:42:18.804Z,14.0925
2023-03-29T20:43:19.905Z,15.4169
2023-03-29T20:44:21.859Z,15.3856
2023-03-29T20:45:22.917Z,15.0966
2023-03-29T20:46:24.552Z,14.6986
2023-03-29T20:47:25.973Z,18.0829
2023-03-29T20:48:27.491Z,17.5398
2023-03-29T20:49:29.164Z,30.1304
2023-03-29T20:50:30.588Z,61.7554
2023-03-29T20:51:32.185Z,65.4508
2023-03-29T20:52:33.597Z,65.8074
2023-03-29T20:53:35.121Z,70.4307
2023-03-29T20:54:36.715Z,75.3256
2023-03-29T20:55:38.171Z,72.5348
2023-03-29T20:56:40.715Z,72.2921
2023-03-29T20:57:41.203Z,74.2673
2023-03-29T20:58:42.694Z,70.9574
2023-03-29T20:59:44.253Z,71.5411
2023-03-29T21:00:45.761Z,71.0119
2023-03-29T21:01:47.306Z,66.7056
2023-03-29T21:02:48.867Z,67.2052
2023-03-29T21:03:50.387Z,65.0758
2023-03-29T21:04:51.963Z,65.9257
2023-03-29T21:05:53.449Z,64.1301
2023-03-29T21:06:54.914Z,60.4065
2023-03-29T21:07:56.425Z,56.9203
2023-03-29T21:08:57.942Z,58.2490
2023-03-29T21:09:59.465Z,57.5521
2023-03-29T21:11:01.140Z,59.2866
2023-03-29T21:12:02.599Z,61.3301
2023-03-29T21:13:04.041Z,57.8404
2023-03-29T21:14:05.576Z,55.1614
2023-03-29T21:15:07.084Z,53.7893
2023-03-29T21:16:08.662Z,51.4459
2023-03-29T21:17:10.186Z,48.1532
2023-03-29T21:18:11.726Z,47.2269
2023-03-29T21:19:13.169Z,46.5193
2023-03-29T21:20:14.721Z,46.3650
2023-03-29T21:21:16.252Z,46.5925
2023-03-29T21:22:22.608Z,45.3762
2023-03-29T21:23:26.055Z,46.7635
2023-03-29T21:24:29.520Z,46.1392
2023-03-29T21:25:29.615Z,46.2788
2023-03-29T21:26:30.525Z,43.8511
2023-03-29T21:27:31.555Z,41.3267
2023-03-29T21:28:33.153Z,46.9508
2023-03-29T21:29:35.434Z,50.9915
2023-03-29T21:30:36.752Z,47.5791
2023-03-29T21:31:37.276Z,49.7932
2023-03-29T21:32:37.783Z,46.8377
2023-03-29T21:33:40.801Z,42.0100
2023-03-29T21:34:41.452Z,40.4498
2023-03-29T21:35:42.447Z,43.1436
2023-03-29T21:36:43.835Z,43.4031
2023-03-29T21:37:45.334Z,42.5362
2023-03-29T21:38:46.943Z,42.3666
2023-03-29T21:39:49.518Z,41.4432
2023-03-29T21:40:50.022Z,49.3676
2023-03-29T21:41:51.422Z,47.4166
2023-03-29T21:42:52.945Z,43.5852
2023-03-29T21:43:54.475Z,50.0590
2023-03-29T21:44:56.012Z,46.6599
2023-03-29T21:45:57.613Z,42.5435
2023-03-29T21:46:59.133Z,41.1370
2023-03-29T21:48:00.647Z,41.6211
2023-03-29T21:49:02.162Z,47.1412
2023-03-29T21:50:03.652Z,43.4507
2023-03-29T21:51:05.446Z,43.0072
2023-03-29T21:52:06.683Z,43.6757
2023-03-29T21:53:08.693Z,46.4212
2023-03-29T21:54:10.267Z,41.1781
2023-03-29T22:06:32.735Z,42.4298
2023-03-29T22:06:32.735Z,35.5526
2023-03-29T22:07:24.827Z,34.7884
2023-03-29T22:08:26.439Z,33.0765
2023-03-29T22:09:27.887Z,36.4109
2023-03-29T22:10:29.432Z,35.6349
2023-03-29T22:11:31.866Z,35.0273
2023-03-29T22:12:32.473Z,37.8484
2023-03-29T22:13:33.981Z,34.3065
2023-03-29T22:14:36.243Z,37.4782
2023-03-29T22:15:37.009Z,34.4197
2023-03-29T22:16:40.956Z,30.4702
2023-03-29T22:17:41.513Z,31.1418
2023-03-29T22:18:42.765Z,35.1613
2023-03-29T22:19:43.946Z,34.5150
2023-03-29T22:20:45.197Z,34.6760
2023-03-29T22:21:46.423Z,32.9704
2023-03-29T22:22:47.808Z,33.2380
2023-03-29T22:23:49.187Z,32.3923
2023-03-29T22:24:51.888Z,32.5915
2023-03-29T22:25:52.237Z,32.9750
2023-03-29T22:26:53.742Z,35.6318
2023-03-29T22:27:55.312Z,35.0905
2023-03-29T22:28:57.378Z,34.8777
2023-03-29T22:29:58.348Z,34.2030
2023-03-29T22:31:00.288Z,34.0387
2023-03-29T22:32:01.474Z,34.1927
2023-03-29T22:33:02.984Z,34.8805
2023-03-29T22:34:04.503Z,33.5709
2023-03-29T22:35:05.942Z,34.1203
2023-03-29T22:36:07.457Z,43.0681
2023-03-29T22:37:08.978Z,47.0993
2023-03-29T22:38:10.503Z,56.3297
2023-03-29T22:39:12.038Z,58.1706
2023-03-29T22:40:13.558Z,65.3306
2023-03-29T22:41:15.071Z,62.9772
2023-03-29T22:42:16.609Z,62.4833
2023-03-29T22:43:18.140Z,59.1703
2023-03-29T22:44:19.640Z,64.0955
2023-03-29T22:45:21.206Z,64.1657
2023-03-29T22:46:22.777Z,63.9652
2023-03-29T22:47:24.240Z,64.1885
2023-03-29T22:48:25.709Z,65.7336
2023-03-29T22:49:27.257Z,68.2186
2023-03-29T22:50:28.769Z,65.5087
2023-03-29T22:51:30.301Z,67.2565
2023-03-29T22:52:31.852Z,60.9963
2023-03-29T22:53:33.376Z,63.8910
2023-03-29T22:54:34.864Z,62.3812
2023-03-29T22:55:36.375Z,61.7069
2023-03-29T22:56:37.997Z,62.4350
2023-03-29T22:57:39.472Z,60.8421
2023-03-29T22:58:40.988Z,57.8944
2023-03-29T22:59:42.493Z,53.0279
2023-03-29T23:00:44.019Z,52.8970
2023-03-29T23:01:45.514Z,53.9725
2023-03-29T23:02:47.031Z,56.8141
2023-03-29T23:03:48.595Z,47.8717
2023-03-29T23:04:50.222Z,53.2048
2023-03-29T23:05:51.587Z,50.1285
2023-03-29T23:06:53.193Z,47.1078
2023-03-29T23:07:54.624Z,46.3847
2023-03-29T23:08:56.170Z,48.3960
2023-03-29T23:09:57.723Z,48.7819
2023-03-29T23:10:59.188Z,46.0956
2023-03-29T23:12:00.854Z,44.8792
2023-03-29T23:13:02.224Z,47.9344
2023-03-29T23:14:03.744Z,47.3497
2023-03-29T23:15:05.304Z,49.0529
2023-03-29T23:16:06.889Z,44.6150
2023-03-29T23:17:08.307Z,42.7845
2023-03-29T23:18:09.852Z,41.3131
2023-03-29T23:19:11.347Z,42.9298
2023-03-29T23:20:12.938Z,39.4299
2023-03-29T23:21:14.397Z,40.5485
2023-03-29T23:22:15.951Z,42.2996
2023-03-29T23:23:17.438Z,43.2344
2023-03-29T23:24:19.323Z,40.9784
2023-03-29T23:25:20.490Z,44.1309
2023-03-29T23:26:22.003Z,38.8725
2023-03-29T23:27:23.576Z,39.0845
2023-03-29T23:28:25.069Z,37.9125
2023-03-29T23:29:26.567Z,38.4350
2023-03-29T23:30:28.108Z,37.7782
2023-03-29T23:31:29.657Z,42.8736
2023-03-29T23:32:31.165Z,39.2572
2023-03-29T23:33:32.689Z,37.8272
2023-03-29T23:34:34.185Z,41.0354
2023-03-29T23:35:35.773Z,36.6922
2023-03-29T23:36:37.233Z,37.3794
2023-03-29T23:37:38.799Z,35.5380
2023-03-29T23:38:40.262Z,36.7685
2023-03-29T23:39:41.826Z,31.2881
2023-03-29T23:40:43.316Z,34.7279
2023-03-29T23:41:44.915Z,33.2763
2023-03-29T23:42:46.384Z,36.4022
2023-03-29T23:43:47.913Z,32.7386
2023-03-29T23:44:49.402Z,30.1561
2023-03-29T23:45:51.083Z,32.4122
2023-03-29T23:46:52.541Z,37.4911
2023-03-29T23:47:54.025Z,31.0446
2023-03-29T23:48:55.554Z,29.1261
2023-03-29T23:49:57.016Z,28.4306
2023-03-29T23:50:59.616Z,31.1031
2023-03-29T23:52:00.077Z,34.3910
2023-03-29T23:53:01.560Z,33.9591
2023-03-29T23:54:03.120Z,30.5158
2023-03-29T23:55:04.595Z,32.2234
2023-03-29T23:56:06.139Z,30.9391
2023-03-29T23:57:07.757Z,30.0667
2023-03-29T23:58:09.156Z,30.8027
2023-03-29T23:59:10.741Z,31.1000
